createdAt,value
2022-10-12T00:01:50.049Z,98760.41
2022-10-12T00:04:53.301Z,98753.47
2022-10-12T00:07:57.915Z,98751.78
2022-10-12T00:11:01.299Z,98748.69
2022-10-12T00:14:04.731Z,98747.72
2022-10-12T00:17:07.899Z,98723.41
2022-10-12T00:20:12.039Z,98719.06
2022-10-12T00:23:16.610Z,98746.66
2022-10-12T00:26:21.646Z,98747.09
2022-10-12T00:29:25.493Z,98748.16
2022-10-12T00:32:28.698Z,98745.81
2022-10-12T00:35:31.874Z,98745.19
2022-10-12T00:38:36.375Z,98745.25
2022-10-12T00:41:41.963Z,98743.03
2022-10-12T00:44:46.677Z,98739.44
2022-10-12T00:47:52.906Z,98751.63
2022-10-12T00:50:57.072Z,98749.63
2022-10-12T00:54:07.078Z,98737.72
2022-10-12T00:57:12.638Z,98740.91
2022-10-12T01:00:16.882Z,98749.03
2022-10-12T01:03:23.537Z,98729.72
2022-10-12T01:06:26.789Z,98744.00
2022-10-12T01:09:31.920Z,98749.53
2022-10-12T01:12:35.958Z,98721.56
2022-10-12T01:15:46.564Z,98699.78
2022-10-12T01:18:57.099Z,98744.00
2022-10-12T01:22:04.366Z,98729.56
2022-10-12T01:25:19.598Z,98713.03
2022-10-12T01:28:37.226Z,98743.00
2022-10-12T01:31:48.253Z,98746.38
2022-10-12T01:34:58.573Z,98661.16
2022-10-12T01:38:12.125Z,98743.50
2022-10-12T01:41:21.152Z,98743.78
2022-10-12T01:44:26.589Z,98717.19
2022-10-12T01:47:32.721Z,98722.66
2022-10-12T01:50:44.542Z,98737.09
2022-10-12T01:53:56.532Z,98729.53
2022-10-12T01:57:07.362Z,98742.31
2022-10-12T02:00:13.089Z,98728.94
2022-10-12T02:03:24.442Z,98727.50
2022-10-12T02:06:33.437Z,98705.19
2022-10-12T02:09:38.117Z,98728.19
2022-10-12T02:12:43.422Z,98726.03
2022-10-12T02:15:48.921Z,98725.28
2022-10-12T02:18:56.967Z,98710.63
2022-10-12T02:22:03.122Z,98718.47
2022-10-12T02:25:11.057Z,98725.69
2022-10-12T02:28:18.714Z,98723.91
2022-10-12T02:31:29.130Z,98724.16
2022-10-12T02:34:37.301Z,98715.44
2022-10-12T02:37:44.571Z,98694.69
2022-10-12T02:40:52.426Z,98713.31
2022-10-12T02:44:00.791Z,98714.34
2022-10-12T02:47:05.417Z,98714.41
2022-10-12T02:50:11.397Z,98683.16
2022-10-12T02:53:15.828Z,98706.81
2022-10-12T02:56:18.891Z,98712.72
2022-10-12T02:59:22.096Z,98701.88
2022-10-12T03:02:25.299Z,98709.28
2022-10-12T03:05:29.793Z,98699.34
2022-10-12T03:08:32.901Z,98680.66
2022-10-12T03:11:37.660Z,98708.56
2022-10-12T03:14:40.799Z,98703.44
2022-10-12T03:17:43.941Z,98704.38
2022-10-12T03:20:50.333Z,98701.22
2022-10-12T03:23:53.480Z,98701.88
2022-10-12T03:26:56.994Z,98697.88
2022-10-12T03:30:00.163Z,98684.50
2022-10-12T03:34:33.292Z,98691.19
2022-10-12T03:37:36.801Z,98681.19
2022-10-12T03:40:40.455Z,98670.94
2022-10-12T03:43:43.815Z,98664.44
2022-10-12T03:46:47.052Z,98665.53
2022-10-12T03:49:51.700Z,98679.19
2022-10-12T03:52:54.954Z,98676.94
2022-10-12T03:55:58.189Z,98680.66
2022-10-12T03:59:01.528Z,98682.03
2022-10-12T04:02:04.695Z,98685.09
2022-10-12T04:05:10.274Z,98673.22
2022-10-12T04:08:13.672Z,98665.59
2022-10-12T04:11:17.385Z,98685.34
2022-10-12T04:14:20.505Z,98685.63
2022-10-12T04:17:23.965Z,98670.28
2022-10-12T04:20:28.587Z,98682.38
2022-10-12T04:23:31.754Z,98678.09
2022-10-12T04:26:34.924Z,98697.78
2022-10-12T04:29:38.237Z,98689.34
2022-10-12T04:32:41.584Z,98688.00
2022-10-12T04:35:46.092Z,98706.19
2022-10-12T04:38:49.218Z,98703.81
2022-10-12T04:41:52.322Z,98699.88
2022-10-12T04:44:55.510Z,98702.47
2022-10-12T04:47:58.670Z,98688.34
2022-10-12T04:51:03.191Z,98712.94
2022-10-12T04:54:06.577Z,98705.28
2022-10-12T04:57:10.005Z,98711.31
2022-10-12T05:00:13.934Z,98683.25
2022-10-12T05:03:17.567Z,98712.97
2022-10-12T05:06:22.124Z,98711.25
2022-10-12T05:09:25.453Z,98714.63
2022-10-12T05:12:28.752Z,98726.44
2022-10-12T05:15:32.141Z,98723.75
2022-10-12T05:18:35.272Z,98726.84
2022-10-12T05:21:40.473Z,98714.84
2022-10-12T05:24:43.656Z,98722.91
2022-10-12T05:27:46.843Z,98716.97
2022-10-12T05:30:51.309Z,98723.75
2022-10-12T05:33:54.433Z,98673.63
2022-10-12T05:36:59.270Z,98726.56
2022-10-12T05:40:02.529Z,98731.94
2022-10-12T05:43:06.192Z,98728.22
2022-10-12T05:46:14.248Z,98721.34
2022-10-12T05:49:17.824Z,98735.00
2022-10-12T05:52:22.476Z,98729.59
2022-10-12T05:55:25.693Z,98735.44
2022-10-12T05:58:30.842Z,98732.78
2022-10-12T06:01:34.220Z,98732.44
2022-10-12T06:04:37.535Z,98738.16
2022-10-12T06:07:42.575Z,98736.66
2022-10-12T06:10:51.362Z,98729.28
2022-10-12T06:13:54.898Z,98739.47
2022-10-12T06:16:58.075Z,98748.03
2022-10-12T06:20:01.268Z,98741.06
2022-10-12T06:23:06.168Z,98738.81
2022-10-12T06:26:09.282Z,98742.75
2022-10-12T06:29:12.815Z,98741.81
2022-10-12T06:32:16.000Z,98740.72
2022-10-12T06:35:21.755Z,98743.72
2022-10-12T06:38:26.314Z,98726.88
2022-10-12T06:41:29.397Z,98745.34
2022-10-12T06:44:32.846Z,98750.91
2022-10-12T06:47:35.998Z,98756.53
2022-10-12T06:50:39.519Z,98750.16
2022-10-12T06:53:44.330Z,98760.56
2022-10-12T06:56:47.647Z,98762.44
2022-10-12T06:59:50.798Z,98758.03
2022-10-12T07:02:53.977Z,98773.56
2022-10-12T07:05:57.131Z,98772.28
2022-10-12T07:09:02.209Z,98761.84
2022-10-12T07:12:05.963Z,98772.00
2022-10-12T07:15:10.284Z,98773.88
2022-10-12T07:18:13.403Z,98776.19
2022-10-12T07:21:16.600Z,98779.47
2022-10-12T07:24:21.155Z,98769.78
2022-10-12T07:27:24.620Z,98777.66
2022-10-12T07:30:27.980Z,98774.81
2022-10-12T07:33:35.210Z,98766.81
2022-10-12T07:36:57.928Z,98771.19
2022-10-12T07:40:04.115Z,98768.47
2022-10-12T07:43:15.723Z,98763.91
2022-10-12T07:46:19.561Z,98751.78
2022-10-12T07:49:22.986Z,98767.41
2022-10-12T07:52:27.503Z,98777.69
2022-10-12T07:55:32.970Z,98772.22
2022-10-12T07:58:36.348Z,98756.84
2022-10-12T08:01:39.520Z,98780.81
2022-10-12T08:04:43.206Z,98774.44
2022-10-12T08:07:46.361Z,98766.19
2022-10-12T08:10:51.046Z,98760.56
2022-10-12T08:13:55.079Z,98759.59
2022-10-12T08:16:58.198Z,98755.25
2022-10-12T08:20:01.350Z,98767.16
2022-10-12T08:23:04.613Z,98746.53
2022-10-12T08:26:09.355Z,98768.88
2022-10-12T08:29:12.652Z,98754.88
2022-10-12T08:32:15.842Z,98769.88
2022-10-12T08:35:19.007Z,98766.84
2022-10-12T08:38:22.158Z,98773.97
2022-10-12T08:41:46.984Z,98775.19
2022-10-12T08:45:27.479Z,98786.19
2022-10-12T08:48:37.023Z,98771.53
2022-10-12T08:51:48.110Z,98782.94
2022-10-12T08:54:51.528Z,98775.53
2022-10-12T08:57:56.111Z,98773.81
2022-10-12T09:01:11.680Z,98756.25
2022-10-12T09:04:34.440Z,98786.50
2022-10-12T09:07:41.625Z,98786.22
2022-10-12T09:10:47.649Z,98740.75
2022-10-12T09:14:00.645Z,98782.00
2022-10-12T09:17:09.613Z,98781.16
2022-10-12T09:20:20.297Z,98797.31
2022-10-12T09:23:26.234Z,98798.34
2022-10-12T09:26:35.715Z,98793.59
2022-10-12T09:29:40.500Z,98795.19
2022-10-12T09:34:33.213Z,98805.06
2022-10-12T09:37:37.191Z,98802.66
2022-10-12T09:40:41.221Z,98797.88
2022-10-12T09:43:44.625Z,98813.66
2022-10-12T09:46:55.316Z,98812.16
2022-10-12T09:50:02.117Z,98805.59
2022-10-12T09:53:14.513Z,98802.22
2022-10-12T09:56:25.352Z,98791.41
2022-10-12T09:59:31.279Z,98805.19
2022-10-12T10:02:47.743Z,98799.84
2022-10-12T10:06:03.744Z,98810.34
2022-10-12T10:09:07.629Z,98806.63
2022-10-12T10:12:22.685Z,98814.41
2022-10-12T10:15:28.612Z,98817.13
2022-10-12T10:18:35.976Z,98804.53
2022-10-12T10:21:41.508Z,98804.94
2022-10-12T10:24:50.471Z,98823.16
2022-10-12T10:28:22.574Z,98819.66
2022-10-12T10:31:29.383Z,98812.56
2022-10-12T10:34:32.584Z,98818.34
2022-10-12T10:37:37.045Z,98815.72
2022-10-12T10:40:40.290Z,98823.47
2022-10-12T10:43:48.177Z,98809.75
2022-10-12T10:46:52.280Z,98821.09
2022-10-12T10:49:59.167Z,98818.28
2022-10-12T10:53:06.374Z,98823.84
2022-10-12T10:56:13.041Z,98826.59
2022-10-12T10:59:20.982Z,98823.78
2022-10-12T11:02:35.196Z,98816.03
2022-10-12T11:05:44.176Z,98826.06
2022-10-12T11:08:53.991Z,98814.22
2022-10-12T11:12:03.004Z,98813.88
2022-10-12T11:15:16.441Z,98816.25
2022-10-12T11:18:25.971Z,98804.03
2022-10-12T11:21:36.482Z,98817.59
2022-10-12T11:24:46.270Z,98797.63
2022-10-12T11:27:53.780Z,98801.16
2022-10-12T11:30:57.239Z,98804.47
2022-10-12T11:34:08.942Z,98775.31
2022-10-12T11:37:21.006Z,98812.94
2022-10-12T11:40:48.634Z,98805.09
2022-10-12T11:43:57.273Z,98802.69
2022-10-12T11:47:04.005Z,98808.94
2022-10-12T11:50:16.311Z,98802.75
2022-10-12T11:53:26.467Z,98792.69
2022-10-12T11:56:35.679Z,98793.66
2022-10-12T11:59:43.580Z,98787.56
2022-10-12T12:02:50.445Z,98781.34
2022-10-12T12:05:53.478Z,98765.88
2022-10-12T12:09:18.741Z,98768.56
2022-10-12T12:12:25.625Z,98760.59
2022-10-12T12:15:29.085Z,98759.91
2022-10-12T12:18:34.031Z,98755.56
2022-10-12T12:22:10.397Z,98760.63
2022-10-12T12:25:34.672Z,98751.97
2022-10-12T12:28:40.862Z,98760.00
2022-10-12T12:31:44.060Z,98756.31
2022-10-12T12:35:00.490Z,98762.69
2022-10-12T12:38:18.233Z,98751.53
2022-10-12T12:41:23.054Z,98737.41
2022-10-12T12:44:41.547Z,98730.56
2022-10-12T12:47:46.166Z,98739.72
2022-10-12T12:50:51.502Z,98746.53
2022-10-12T12:54:01.186Z,98719.94
2022-10-12T12:57:25.689Z,98738.47
2022-10-12T13:00:38.228Z,98729.47
2022-10-12T13:04:01.519Z,98740.50
2022-10-12T13:07:34.467Z,98736.81
2022-10-12T13:10:55.641Z,98731.25
2022-10-12T13:14:08.022Z,98734.16
2022-10-12T13:17:34.258Z,98719.59
2022-10-12T13:20:40.185Z,98719.19
2022-10-12T13:23:46.951Z,98723.03
2022-10-12T13:26:52.511Z,98722.88
2022-10-12T13:29:59.362Z,98719.75
2022-10-12T13:33:14.211Z,98716.97
2022-10-12T13:36:22.579Z,98715.13
2022-10-12T13:39:26.761Z,98710.50
2022-10-12T13:42:33.449Z,98691.47
2022-10-12T13:45:45.422Z,98695.63
2022-10-12T13:49:05.940Z,98717.13
2022-10-12T13:52:21.718Z,98711.94
2022-10-12T13:55:29.160Z,98704.91
2022-10-12T13:58:33.844Z,98698.66
2022-10-12T14:01:49.254Z,98703.44
2022-10-12T14:04:57.156Z,98699.00
2022-10-12T14:08:06.602Z,98692.69
2022-10-12T14:11:10.703Z,98701.50
2022-10-12T14:14:21.497Z,98692.06
2022-10-12T14:17:24.952Z,98688.53
2022-10-12T14:20:32.370Z,98690.63
2022-10-12T14:23:35.556Z,98690.31
2022-10-12T14:26:41.555Z,98696.97
2022-10-12T14:29:46.716Z,98698.13
2022-10-12T14:32:53.965Z,98677.75
2022-10-12T14:36:16.179Z,98694.41
2022-10-12T14:39:20.877Z,98700.72
2022-10-12T14:42:29.410Z,98711.94
2022-10-12T14:45:33.323Z,98703.59
2022-10-12T14:48:37.250Z,98704.72
2022-10-12T14:51:41.935Z,98708.53
2022-10-12T14:54:45.341Z,98701.88
2022-10-12T14:57:49.752Z,98687.56
2022-10-12T15:00:52.952Z,98632.81
2022-10-12T15:03:56.183Z,98701.97
2022-10-12T15:07:00.824Z,98701.69
2022-10-12T15:10:04.514Z,98680.28
2022-10-12T15:13:07.965Z,98699.66
2022-10-12T15:16:19.545Z,98696.19
2022-10-12T15:19:22.629Z,98703.59
2022-10-12T15:22:29.143Z,98686.91
2022-10-12T15:25:42.689Z,98701.97
2022-10-12T15:28:46.209Z,98706.00
2022-10-12T15:34:33.242Z,98694.88
2022-10-12T15:37:36.389Z,98697.88
2022-10-12T15:40:40.521Z,98698.19
2022-10-12T15:43:43.921Z,98718.22
2022-10-12T15:46:52.059Z,98710.19
2022-10-12T15:49:56.552Z,98708.28
2022-10-12T15:52:59.694Z,98700.25
2022-10-12T15:56:02.817Z,98698.19
2022-10-12T15:59:06.492Z,98693.44
2022-10-12T16:02:11.973Z,98692.41
2022-10-12T16:05:21.022Z,98698.38
2022-10-12T16:08:24.589Z,98698.00
2022-10-12T16:11:27.770Z,98694.56
2022-10-12T16:14:31.416Z,98698.97
2022-10-12T16:17:34.543Z,98696.34
2022-10-12T16:20:41.351Z,98697.38
2022-10-12T16:23:44.488Z,98693.53
2022-10-12T16:26:49.972Z,98693.16
2022-10-12T16:29:53.718Z,98693.22
2022-10-12T16:32:56.919Z,98696.75
2022-10-12T16:36:01.383Z,98691.03
2022-10-12T16:39:04.576Z,98699.13
2022-10-12T16:42:07.680Z,98698.75
2022-10-12T16:45:11.703Z,98691.03
2022-10-12T16:48:14.793Z,98701.47
2022-10-12T16:51:19.301Z,98691.31
2022-10-12T16:54:23.247Z,98705.69
2022-10-12T16:57:26.319Z,98708.69
2022-10-12T17:00:29.633Z,98697.81
2022-10-12T17:03:32.996Z,98697.59
2022-10-12T17:06:37.530Z,98685.97
2022-10-12T17:09:40.716Z,98691.66
2022-10-12T17:12:44.137Z,98680.34
2022-10-12T17:15:47.536Z,98675.66
2022-10-12T17:18:53.542Z,98695.44
2022-10-12T17:22:04.395Z,98711.13
2022-10-12T17:25:08.736Z,98703.81
2022-10-12T17:28:12.223Z,98718.53
2022-10-12T17:31:15.437Z,98710.25
2022-10-12T17:34:22.018Z,98660.44
2022-10-12T17:37:26.873Z,98707.66
2022-10-12T17:40:30.016Z,98711.34
2022-10-12T17:43:33.464Z,98713.03
2022-10-12T17:46:36.565Z,98693.75
2022-10-12T17:49:39.775Z,98705.66
2022-10-12T17:52:45.673Z,98701.78
2022-10-12T17:55:49.258Z,98705.16
2022-10-12T17:58:57.182Z,98708.78
2022-10-12T18:02:00.845Z,98695.44
2022-10-12T18:05:04.203Z,98710.53
2022-10-12T18:08:08.771Z,98651.66
2022-10-12T18:11:12.872Z,98715.13
2022-10-12T18:14:16.018Z,98715.28
2022-10-12T18:17:19.158Z,98707.34
2022-10-12T18:20:22.395Z,98711.84
2022-10-12T18:23:26.931Z,98697.78
2022-10-12T18:26:30.588Z,98673.19
2022-10-12T18:29:34.015Z,98700.97
2022-10-12T18:32:37.702Z,98615.69
2022-10-12T18:35:41.354Z,98702.66
2022-10-12T18:38:46.050Z,98708.84
2022-10-12T18:41:51.481Z,98708.84
2022-10-12T18:44:55.076Z,98707.44
2022-10-12T18:47:58.323Z,98709.34
2022-10-12T18:51:05.319Z,98713.78
2022-10-12T18:54:12.740Z,98712.34
2022-10-12T18:57:15.875Z,98699.78
2022-10-12T19:00:19.677Z,98720.97
2022-10-12T19:03:23.246Z,98725.31
2022-10-12T19:06:29.099Z,98722.97
2022-10-12T19:09:33.658Z,98723.31
2022-10-12T19:12:36.805Z,98710.88
2022-10-12T19:15:40.022Z,98716.69
2022-10-12T19:18:43.656Z,98712.88
2022-10-12T19:21:46.903Z,98708.06
2022-10-12T19:24:51.602Z,98693.75
2022-10-12T19:27:54.935Z,98704.75
2022-10-12T19:30:58.712Z,98673.81
2022-10-12T19:34:04.247Z,98702.56
2022-10-12T19:37:07.540Z,98701.19
2022-10-12T19:40:14.667Z,98688.00
2022-10-12T19:43:17.796Z,98691.69
2022-10-12T19:46:21.427Z,98700.00
2022-10-12T19:49:24.651Z,98700.47
2022-10-12T19:52:28.061Z,98705.44
2022-10-12T19:55:34.094Z,98704.06
2022-10-12T19:58:37.853Z,98665.41
2022-10-12T20:01:41.401Z,98711.28
2022-10-12T20:04:44.608Z,98680.00
2022-10-12T20:07:47.887Z,98704.72
2022-10-12T20:10:52.834Z,98670.09
2022-10-12T20:13:56.514Z,98698.72
2022-10-12T20:17:00.528Z,98704.19
2022-10-12T20:20:04.112Z,98711.63
2022-10-12T20:23:07.327Z,98700.38
2022-10-12T20:26:14.655Z,98681.78
2022-10-12T20:29:17.973Z,98700.75
2022-10-12T20:32:21.329Z,98713.63
2022-10-12T20:35:24.720Z,98680.97
2022-10-12T20:38:28.243Z,98705.09
2022-10-12T20:41:32.789Z,98716.97
2022-10-12T20:44:36.097Z,98709.19
2022-10-12T20:47:39.343Z,98712.16
2022-10-12T20:50:42.491Z,98713.97
2022-10-12T20:53:46.077Z,98704.38
2022-10-12T20:56:51.971Z,98704.06
2022-10-12T20:59:55.242Z,98695.34
2022-10-12T21:02:58.686Z,98681.97
2022-10-12T21:06:06.084Z,98707.16
2022-10-12T21:09:09.774Z,98688.63
2022-10-12T21:12:14.244Z,98706.16
2022-10-12T21:15:17.491Z,98708.06
2022-10-12T21:18:27.125Z,98701.25
2022-10-12T21:21:35.924Z,98708.94
2022-10-12T21:24:39.171Z,98694.50
2022-10-12T21:27:43.638Z,98699.63
2022-10-12T21:34:32.840Z,98696.09
2022-10-12T21:37:41.082Z,98687.66
2022-10-12T21:40:50.376Z,98692.78
2022-10-12T21:44:22.865Z,98692.34
2022-10-12T21:47:30.463Z,98698.56
2022-10-12T21:51:46.083Z,98704.59
2022-10-12T21:54:54.812Z,98698.16
2022-10-12T21:58:00.020Z,98684.03
2022-10-12T22:01:08.717Z,98689.28
2022-10-12T22:04:14.534Z,98692.16
2022-10-12T22:07:17.865Z,98693.28
2022-10-12T22:10:22.917Z,98685.66
2022-10-12T22:13:27.965Z,98680.44
2022-10-12T22:16:34.305Z,98682.03
2022-10-12T22:19:38.724Z,98687.69
2022-10-12T22:22:44.406Z,98691.78
2022-10-12T22:25:50.693Z,98687.09
2022-10-12T22:28:54.765Z,98678.97
2022-10-12T22:31:58.983Z,98605.63
2022-10-12T22:35:06.655Z,98664.97
2022-10-12T22:38:10.477Z,98672.78
2022-10-12T22:41:17.669Z,98660.59
2022-10-12T22:44:24.589Z,98655.59
2022-10-12T22:47:32.768Z,98654.66
2022-10-12T22:50:38.112Z,98662.25
2022-10-12T22:53:41.435Z,98656.09
2022-10-12T22:56:46.788Z,98656.25
2022-10-12T22:59:51.477Z,98634.34
2022-10-12T23:03:00.572Z,98638.69
2022-10-12T23:06:06.917Z,98650.00
2022-10-12T23:09:14.418Z,98650.03
2022-10-12T23:12:20.169Z,98646.72
2022-10-12T23:15:24.761Z,98633.44
2022-10-12T23:18:28.651Z,98644.56
2022-10-12T23:21:33.961Z,98651.53
2022-10-12T23:24:37.099Z,98654.31
2022-10-12T23:27:41.653Z,98654.81
2022-10-12T23:30:44.869Z,98649.81
2022-10-12T23:33:48.566Z,98628.03
2022-10-12T23:36:51.992Z,98657.78
2022-10-12T23:39:55.637Z,98643.91
2022-10-12T23:43:06.908Z,98652.72
2022-10-12T23:46:17.156Z,98652.88
2022-10-12T23:49:24.765Z,98621.94
2022-10-12T23:52:30.580Z,98651.78
2022-10-12T23:55:34.462Z,98650.94
2022-10-12T23:58:40.579Z,98650.94
